sensor_id;sensor_type;location;lat;lon;timestamp;P1;durP1;ratioP1;P2;durP2;ratioP2
50417;SDS011;36346;48.280;14.292;2023-02-01T00:02:25;5.71;;;5.67;;
50417;SDS011;36346;48.280;14.292;2023-02-01T00:04:53;5.27;;;5.22;;
50417;SDS011;36346;48.280;14.292;2023-02-01T00:07:22;5.45;;;5.36;;
50417;SDS011;36346;48.280;14.292;2023-02-01T00:09:51;5.23;;;5.17;;
50417;SDS011;36346;48.280;14.292;2023-02-01T00:12:19;5.40;;;5.36;;
50417;SDS011;36346;48.280;14.292;2023-02-01T00:14:48;5.11;;;5.05;;
50417;SDS011;36346;48.280;14.292;2023-02-01T00:17:16;5.10;;;5.08;;
50417;SDS011;36346;48.280;14.292;2023-02-01T00:19:44;4.91;;;4.91;;
50417;SDS011;36346;48.280;14.292;2023-02-01T00:22:12;4.77;;;4.74;;
50417;SDS011;36346;48.280;14.292;2023-02-01T00:24:40;4.95;;;4.94;;
50417;SDS011;36346;48.280;14.292;2023-02-01T00:27:11;5.23;;;5.18;;
50417;SDS011;36346;48.280;14.292;2023-02-01T00:29:45;4.91;;;4.85;;
50417;SDS011;36346;48.280;14.292;2023-02-01T00:32:14;4.69;;;4.65;;
50417;SDS011;36346;48.280;14.292;2023-02-01T00:34:42;4.20;;;4.16;;
50417;SDS011;36346;48.280;14.292;2023-02-01T00:37:10;4.19;;;4.18;;
50417;SDS011;36346;48.280;14.292;2023-02-01T00:39:38;4.25;;;4.24;;
50417;SDS011;36346;48.280;14.292;2023-02-01T00:42:07;4.08;;;4.07;;
50417;SDS011;36346;48.280;14.292;2023-02-01T00:44:40;4.25;;;4.23;;
50417;SDS011;36346;48.280;14.292;2023-02-01T00:47:08;4.02;;;4.01;;
50417;SDS011;36346;48.280;14.292;2023-02-01T00:50:02;4.52;;;4.48;;
50417;SDS011;36346;48.280;14.292;2023-02-01T00:52:30;4.51;;;4.46;;
50417;SDS011;36346;48.280;14.292;2023-02-01T00:54:58;4.45;;;4.42;;
50417;SDS011;36346;48.280;14.292;2023-02-01T00:57:26;4.16;;;4.16;;
50417;SDS011;36346;48.280;14.292;2023-02-01T00:59:54;4.47;;;4.46;;
50417;SDS011;36346;48.280;14.292;2023-02-01T01:02:24;4.65;;;4.63;;
50417;SDS011;36346;48.280;14.292;2023-02-01T01:04:54;4.38;;;4.34;;
50417;SDS011;36346;48.280;14.292;2023-02-01T01:07:22;4.20;;;4.17;;
50417;SDS011;36346;48.280;14.292;2023-02-01T01:09:51;4.68;;;4.66;;
50417;SDS011;36346;48.280;14.292;2023-02-01T01:12:20;4.23;;;4.19;;
50417;SDS011;36346;48.280;14.292;2023-02-01T01:14:48;4.31;;;4.31;;
50417;SDS011;36346;48.280;14.292;2023-02-01T01:17:17;4.29;;;4.27;;
50417;SDS011;36346;48.280;14.292;2023-02-01T01:19:45;4.65;;;4.60;;
50417;SDS011;36346;48.280;14.292;2023-02-01T01:22:13;4.44;;;4.40;;
50417;SDS011;36346;48.280;14.292;2023-02-01T01:25:09;4.60;;;4.58;;
50417;SDS011;36346;48.280;14.292;2023-02-01T01:27:38;4.57;;;4.56;;
50417;SDS011;36346;48.280;14.292;2023-02-01T01:30:06;4.52;;;4.52;;
50417;SDS011;36346;48.280;14.292;2023-02-01T01:32:35;4.38;;;4.38;;
50417;SDS011;36346;48.280;14.292;2023-02-01T01:35:05;4.53;;;4.53;;
50417;SDS011;36346;48.280;14.292;2023-02-01T01:37:37;4.29;;;4.29;;
50417;SDS011;36346;48.280;14.292;2023-02-01T01:40:30;4.30;;;4.30;;
50417;SDS011;36346;48.280;14.292;2023-02-01T01:43:00;4.47;;;4.46;;
50417;SDS011;36346;48.280;14.292;2023-02-01T01:45:32;4.51;;;4.49;;
50417;SDS011;36346;48.280;14.292;2023-02-01T01:48:03;4.54;;;4.52;;
50417;SDS011;36346;48.280;14.292;2023-02-01T01:50:40;4.43;;;4.43;;
50417;SDS011;36346;48.280;14.292;2023-02-01T01:53:14;4.64;;;4.60;;
50417;SDS011;36346;48.280;14.292;2023-02-01T01:55:47;4.61;;;4.58;;
50417;SDS011;36346;48.280;14.292;2023-02-01T01:58:20;4.26;;;4.24;;
50417;SDS011;36346;48.280;14.292;2023-02-01T02:00:53;4.31;;;4.28;;
50417;SDS011;36346;48.280;14.292;2023-02-01T02:05:57;4.31;;;4.28;;
50417;SDS011;36346;48.280;14.292;2023-02-01T02:08:30;4.35;;;4.31;;
50417;SDS011;36346;48.280;14.292;2023-02-01T02:10:58;4.58;;;4.56;;
50417;SDS011;36346;48.280;14.292;2023-02-01T02:13:34;4.42;;;4.39;;
50417;SDS011;36346;48.280;14.292;2023-02-01T02:36:27;2.68;;;2.68;;
50417;SDS011;36346;48.280;14.292;2023-02-01T02:39:25;2.92;;;2.92;;
50417;SDS011;36346;48.280;14.292;2023-02-01T02:42:01;3.02;;;3.02;;
50417;SDS011;36346;48.280;14.292;2023-02-01T02:45:19;2.74;;;2.73;;
50417;SDS011;36346;48.280;14.292;2023-02-01T02:50:51;3.05;;;3.05;;
50417;SDS011;36346;48.280;14.292;2023-02-01T02:53:53;2.81;;;2.81;;
50417;SDS011;36346;48.280;14.292;2023-02-01T02:56:47;2.84;;;2.84;;
50417;SDS011;36346;48.280;14.292;2023-02-01T02:59:36;3.07;;;3.07;;
50417;SDS011;36346;48.280;14.292;2023-02-01T03:02:48;2.96;;;2.96;;
50417;SDS011;36346;48.280;14.292;2023-02-01T03:05:40;3.09;;;3.09;;
50417;SDS011;36346;48.280;14.292;2023-02-01T03:08:13;3.47;;;3.47;;
50417;SDS011;36346;48.280;14.292;2023-02-01T03:20:58;3.27;;;3.27;;
50417;SDS011;36346;48.280;14.292;2023-02-01T03:23:30;3.49;;;3.49;;
50417;SDS011;36346;48.280;14.292;2023-02-01T03:26:10;3.53;;;3.53;;
50417;SDS011;36346;48.280;14.292;2023-02-01T03:28:46;3.47;;;3.47;;
50417;SDS011;36346;48.280;14.292;2023-02-01T03:31:31;3.57;;;3.57;;
50417;SDS011;36346;48.280;14.292;2023-02-01T03:34:00;3.46;;;3.46;;
50417;SDS011;36346;48.280;14.292;2023-02-01T03:36:35;3.75;;;3.75;;
50417;SDS011;36346;48.280;14.292;2023-02-01T03:39:31;3.69;;;3.69;;
50417;SDS011;36346;48.280;14.292;2023-02-01T03:42:10;3.72;;;3.70;;
50417;SDS011;36346;48.280;14.292;2023-02-01T03:44:49;3.78;;;3.75;;
50417;SDS011;36346;48.280;14.292;2023-02-01T03:47:33;3.86;;;3.83;;
50417;SDS011;36346;48.280;14.292;2023-02-01T03:50:07;3.94;;;3.92;;
50417;SDS011;36346;48.280;14.292;2023-02-01T03:52:47;4.15;;;4.13;;
50417;SDS011;36346;48.280;14.292;2023-02-01T03:55:39;4.07;;;4.05;;
50417;SDS011;36346;48.280;14.292;2023-02-01T04:00:42;3.89;;;3.89;;
50417;SDS011;36346;48.280;14.292;2023-02-01T04:03:38;3.91;;;3.91;;
50417;SDS011;36346;48.280;14.292;2023-02-01T04:06:11;4.03;;;4.03;;
50417;SDS011;36346;48.280;14.292;2023-02-01T04:08:39;5.35;;;5.34;;
50417;SDS011;36346;48.280;14.292;2023-02-01T04:11:31;6.44;;;6.43;;
50417;SDS011;36346;48.280;14.292;2023-02-01T04:14:00;5.35;;;5.31;;
50417;SDS011;36346;48.280;14.292;2023-02-01T04:16:32;5.68;;;5.65;;
50417;SDS011;36346;48.280;14.292;2023-02-01T04:19:01;4.29;;;4.26;;
50417;SDS011;36346;48.280;14.292;2023-02-01T04:21:29;6.31;;;6.25;;
50417;SDS011;36346;48.280;14.292;2023-02-01T04:23:58;5.79;;;5.71;;
50417;SDS011;36346;48.280;14.292;2023-02-01T04:26:26;3.79;;;3.76;;
50417;SDS011;36346;48.280;14.292;2023-02-01T04:29:21;4.12;;;4.12;;
50417;SDS011;36346;48.280;14.292;2023-02-01T04:32:14;4.92;;;4.89;;
50417;SDS011;36346;48.280;14.292;2023-02-01T04:34:47;3.77;;;3.73;;
50417;SDS011;36346;48.280;14.292;2023-02-01T04:37:15;3.83;;;3.78;;
50417;SDS011;36346;48.280;14.292;2023-02-01T04:39:43;3.36;;;3.31;;
50417;SDS011;36346;48.280;14.292;2023-02-01T04:42:11;3.68;;;3.65;;
50417;SDS011;36346;48.280;14.292;2023-02-01T04:44:39;4.33;;;4.33;;
50417;SDS011;36346;48.280;14.292;2023-02-01T04:47:12;4.49;;;4.47;;
50417;SDS011;36346;48.280;14.292;2023-02-01T04:49:40;4.02;;;3.99;;
50417;SDS011;36346;48.280;14.292;2023-02-01T04:52:09;3.62;;;3.57;;
50417;SDS011;36346;48.280;14.292;2023-02-01T04:54:39;3.60;;;3.59;;
50417;SDS011;36346;48.280;14.292;2023-02-01T04:57:07;3.55;;;3.54;;
50417;SDS011;36346;48.280;14.292;2023-02-01T04:59:35;3.51;;;3.51;;
50417;SDS011;36346;48.280;14.292;2023-02-01T05:02:03;3.84;;;3.84;;
50417;SDS011;36346;48.280;14.292;2023-02-01T05:04:31;3.71;;;3.70;;
50417;SDS011;36346;48.280;14.292;2023-02-01T05:07:00;3.91;;;3.89;;
50417;SDS011;36346;48.280;14.292;2023-02-01T05:09:28;4.67;;;4.65;;
50417;SDS011;36346;48.280;14.292;2023-02-01T05:11:56;5.07;;;5.03;;
50417;SDS011;36346;48.280;14.292;2023-02-01T05:15:07;4.05;;;4.03;;
50417;SDS011;36346;48.280;14.292;2023-02-01T05:17:59;4.06;;;4.03;;
50417;SDS011;36346;48.280;14.292;2023-02-01T05:20:27;4.39;;;4.34;;
50417;SDS011;36346;48.280;14.292;2023-02-01T05:22:54;4.49;;;4.46;;
50417;SDS011;36346;48.280;14.292;2023-02-01T05:25:22;4.32;;;4.28;;
50417;SDS011;36346;48.280;14.292;2023-02-01T05:27:52;4.38;;;4.33;;
50417;SDS011;36346;48.280;14.292;2023-02-01T05:30:24;4.14;;;4.09;;
50417;SDS011;36346;48.280;14.292;2023-02-01T05:32:53;3.81;;;3.80;;
50417;SDS011;36346;48.280;14.292;2023-02-01T05:35:21;4.22;;;4.20;;
50417;SDS011;36346;48.280;14.292;2023-02-01T05:37:48;4.01;;;4.00;;
50417;SDS011;36346;48.280;14.292;2023-02-01T05:40:41;4.09;;;4.08;;
50417;SDS011;36346;48.280;14.292;2023-02-01T05:43:09;3.92;;;3.90;;
50417;SDS011;36346;48.280;14.292;2023-02-01T05:45:39;4.04;;;4.00;;
50417;SDS011;36346;48.280;14.292;2023-02-01T05:48:11;4.26;;;4.26;;
50417;SDS011;36346;48.280;14.292;2023-02-01T05:50:41;4.11;;;4.10;;
50417;SDS011;36346;48.280;14.292;2023-02-01T05:53:11;4.20;;;4.17;;
50417;SDS011;36346;48.280;14.292;2023-02-01T05:55:41;4.22;;;4.21;;
50417;SDS011;36346;48.280;14.292;2023-02-01T05:58:10;4.35;;;4.32;;
50417;SDS011;36346;48.280;14.292;2023-02-01T06:00:39;4.23;;;4.22;;
50417;SDS011;36346;48.280;14.292;2023-02-01T06:03:08;6.02;;;5.98;;
50417;SDS011;36346;48.280;14.292;2023-02-01T06:05:36;8.81;;;8.66;;
50417;SDS011;36346;48.280;14.292;2023-02-01T06:08:08;4.67;;;4.63;;
50417;SDS011;36346;48.280;14.292;2023-02-01T06:10:36;4.43;;;4.43;;
50417;SDS011;36346;48.280;14.292;2023-02-01T06:13:04;4.60;;;4.60;;
50417;SDS011;36346;48.280;14.292;2023-02-01T06:15:33;5.00;;;4.99;;
50417;SDS011;36346;48.280;14.292;2023-02-01T06:18:03;5.24;;;5.24;;
50417;SDS011;36346;48.280;14.292;2023-02-01T06:20:31;4.91;;;4.90;;
50417;SDS011;36346;48.280;14.292;2023-02-01T06:22:59;6.04;;;6.00;;
50417;SDS011;36346;48.280;14.292;2023-02-01T06:25:27;7.86;;;7.77;;
50417;SDS011;36346;48.280;14.292;2023-02-01T06:27:59;6.45;;;6.42;;
50417;SDS011;36346;48.280;14.292;2023-02-01T06:30:30;5.44;;;5.44;;
50417;SDS011;36346;48.280;14.292;2023-02-01T06:32:58;5.87;;;5.86;;
50417;SDS011;36346;48.280;14.292;2023-02-01T06:35:58;5.58;;;5.56;;
50417;SDS011;36346;48.280;14.292;2023-02-01T06:38:28;6.28;;;6.22;;
50417;SDS011;36346;48.280;14.292;2023-02-01T06:40:57;6.12;;;6.09;;
50417;SDS011;36346;48.280;14.292;2023-02-01T06:43:27;5.90;;;5.89;;
50417;SDS011;36346;48.280;14.292;2023-02-01T06:45:59;5.88;;;5.87;;
50417;SDS011;36346;48.280;14.292;2023-02-01T06:48:53;5.80;;;5.79;;
50417;SDS011;36346;48.280;14.292;2023-02-01T06:51:26;5.68;;;5.67;;
50417;SDS011;36346;48.280;14.292;2023-02-01T06:53:56;5.80;;;5.80;;
50417;SDS011;36346;48.280;14.292;2023-02-01T06:56:25;5.81;;;5.81;;
50417;SDS011;36346;48.280;14.292;2023-02-01T06:58:53;5.73;;;5.73;;
50417;SDS011;36346;48.280;14.292;2023-02-01T07:01:23;6.43;;;6.36;;
50417;SDS011;36346;48.280;14.292;2023-02-01T07:03:51;6.29;;;6.22;;
50417;SDS011;36346;48.280;14.292;2023-02-01T07:06:20;6.12;;;6.02;;
50417;SDS011;36346;48.280;14.292;2023-02-01T07:09:14;6.15;;;6.09;;
50417;SDS011;36346;48.280;14.292;2023-02-01T07:11:42;5.81;;;5.81;;
50417;SDS011;36346;48.280;14.292;2023-02-01T07:14:12;5.68;;;5.68;;
50417;SDS011;36346;48.280;14.292;2023-02-01T07:16:40;5.95;;;5.95;;
50417;SDS011;36346;48.280;14.292;2023-02-01T07:19:08;6.06;;;6.02;;
50417;SDS011;36346;48.280;14.292;2023-02-01T07:21:36;5.33;;;5.26;;
50417;SDS011;36346;48.280;14.292;2023-02-01T07:24:04;5.60;;;5.57;;
50417;SDS011;36346;48.280;14.292;2023-02-01T07:26:33;5.72;;;5.71;;
50417;SDS011;36346;48.280;14.292;2023-02-01T07:29:01;6.54;;;6.52;;
50417;SDS011;36346;48.280;14.292;2023-02-01T07:32:20;9.07;;;8.99;;
50417;SDS011;36346;48.280;14.292;2023-02-01T07:35:13;6.74;;;6.55;;
50417;SDS011;36346;48.280;14.292;2023-02-01T07:37:42;5.83;;;5.76;;
50417;SDS011;36346;48.280;14.292;2023-02-01T07:40:11;5.94;;;5.92;;
50417;SDS011;36346;48.280;14.292;2023-02-01T07:42:39;5.37;;;5.37;;
50417;SDS011;36346;48.280;14.292;2023-02-01T07:45:57;5.18;;;5.18;;
50417;SDS011;36346;48.280;14.292;2023-02-01T07:48:27;5.05;;;5.05;;
50417;SDS011;36346;48.280;14.292;2023-02-01T07:52:28;4.60;;;4.60;;
50417;SDS011;36346;48.280;14.292;2023-02-01T07:55:45;4.94;;;4.91;;
50417;SDS011;36346;48.280;14.292;2023-02-01T07:58:13;4.94;;;4.90;;
50417;SDS011;36346;48.280;14.292;2023-02-01T08:00:41;4.89;;;4.83;;
50417;SDS011;36346;48.280;14.292;2023-02-01T08:03:28;4.61;;;4.57;;
50417;SDS011;36346;48.280;14.292;2023-02-01T08:05:56;4.96;;;4.93;;
50417;SDS011;36346;48.280;14.292;2023-02-01T08:08:25;4.96;;;4.94;;
50417;SDS011;36346;48.280;14.292;2023-02-01T08:11:00;4.99;;;4.95;;
50417;SDS011;36346;48.280;14.292;2023-02-01T08:13:32;5.45;;;5.41;;
50417;SDS011;36346;48.280;14.292;2023-02-01T08:16:02;5.33;;;5.28;;
50417;SDS011;36346;48.280;14.292;2023-02-01T08:18:32;4.86;;;4.82;;
50417;SDS011;36346;48.280;14.292;2023-02-01T08:23:33;4.94;;;4.88;;
50417;SDS011;36346;48.280;14.292;2023-02-01T08:26:06;4.92;;;4.85;;
50417;SDS011;36346;48.280;14.292;2023-02-01T08:28:46;5.05;;;5.01;;
50417;SDS011;36346;48.280;14.292;2023-02-01T08:31:18;4.97;;;4.94;;
50417;SDS011;36346;48.280;14.292;2023-02-01T08:33:51;4.99;;;4.95;;
50417;SDS011;36346;48.280;14.292;2023-02-01T08:36:21;5.06;;;5.04;;
50417;SDS011;36346;48.280;14.292;2023-02-01T08:39:14;5.08;;;5.05;;
50417;SDS011;36346;48.280;14.292;2023-02-01T08:42:08;5.18;;;5.16;;
50417;SDS011;36346;48.280;14.292;2023-02-01T08:44:57;5.90;;;5.89;;
50417;SDS011;36346;48.280;14.292;2023-02-01T08:47:25;5.05;;;5.05;;
50417;SDS011;36346;48.280;14.292;2023-02-01T08:49:53;5.86;;;5.79;;
50417;SDS011;36346;48.280;14.292;2023-02-01T08:52:47;5.49;;;5.46;;
50417;SDS011;36346;48.280;14.292;2023-02-01T08:55:16;4.83;;;4.83;;
50417;SDS011;36346;48.280;14.292;2023-02-01T08:57:44;5.15;;;5.15;;
50417;SDS011;36346;48.280;14.292;2023-02-01T09:00:16;5.35;;;5.34;;
50417;SDS011;36346;48.280;14.292;2023-02-01T09:02:47;4.97;;;4.96;;
50417;SDS011;36346;48.280;14.292;2023-02-01T09:05:15;4.95;;;4.94;;
50417;SDS011;36346;48.280;14.292;2023-02-01T09:07:46;4.74;;;4.74;;
50417;SDS011;36346;48.280;14.292;2023-02-01T09:10:15;4.68;;;4.68;;
50417;SDS011;36346;48.280;14.292;2023-02-01T09:12:48;4.69;;;4.68;;
50417;SDS011;36346;48.280;14.292;2023-02-01T09:15:16;5.25;;;5.19;;
50417;SDS011;36346;48.280;14.292;2023-02-01T09:17:44;5.08;;;5.05;;
50417;SDS011;36346;48.280;14.292;2023-02-01T09:20:13;5.18;;;5.16;;
50417;SDS011;36346;48.280;14.292;2023-02-01T09:22:43;4.96;;;4.94;;
50417;SDS011;36346;48.280;14.292;2023-02-01T09:25:11;4.78;;;4.73;;
50417;SDS011;36346;48.280;14.292;2023-02-01T09:27:39;4.45;;;4.40;;
50417;SDS011;36346;48.280;14.292;2023-02-01T09:30:08;4.81;;;4.77;;
50417;SDS011;36346;48.280;14.292;2023-02-01T09:32:36;4.78;;;4.78;;
50417;SDS011;36346;48.280;14.292;2023-02-01T09:35:06;5.11;;;5.11;;
50417;SDS011;36346;48.280;14.292;2023-02-01T09:37:34;5.10;;;5.10;;
50417;SDS011;36346;48.280;14.292;2023-02-01T09:40:05;4.76;;;4.76;;
50417;SDS011;36346;48.280;14.292;2023-02-01T09:48:15;5.27;;;5.24;;
50417;SDS011;36346;48.280;14.292;2023-02-01T09:50:53;4.84;;;4.84;;
50417;SDS011;36346;48.280;14.292;2023-02-01T09:56:04;4.99;;;4.97;;
50417;SDS011;36346;48.280;14.292;2023-02-01T09:59:01;4.92;;;4.91;;
50417;SDS011;36346;48.280;14.292;2023-02-01T10:01:36;4.89;;;4.86;;
50417;SDS011;36346;48.280;14.292;2023-02-01T10:04:06;5.00;;;4.97;;
50417;SDS011;36346;48.280;14.292;2023-02-01T10:09:41;4.69;;;4.69;;
50417;SDS011;36346;48.280;14.292;2023-02-01T10:12:23;4.28;;;4.27;;
50417;SDS011;36346;48.280;14.292;2023-02-01T10:20:43;5.14;;;5.10;;
50417;SDS011;36346;48.280;14.292;2023-02-01T10:26:18;4.90;;;4.85;;
50417;SDS011;36346;48.280;14.292;2023-02-01T10:28:52;4.59;;;4.56;;
50417;SDS011;36346;48.280;14.292;2023-02-01T10:31:28;4.68;;;4.67;;
50417;SDS011;36346;48.280;14.292;2023-02-01T10:34:10;4.95;;;4.92;;
50417;SDS011;36346;48.280;14.292;2023-02-01T10:36:55;5.11;;;5.10;;
50417;SDS011;36346;48.280;14.292;2023-02-01T10:39:28;5.18;;;5.15;;
50417;SDS011;36346;48.280;14.292;2023-02-01T10:42:23;4.76;;;4.73;;
50417;SDS011;36346;48.280;14.292;2023-02-01T10:44:54;5.09;;;5.09;;
50417;SDS011;36346;48.280;14.292;2023-02-01T10:47:25;5.08;;;5.08;;
50417;SDS011;36346;48.280;14.292;2023-02-01T10:53:08;4.86;;;4.86;;
50417;SDS011;36346;48.280;14.292;2023-02-01T10:58:17;4.58;;;4.52;;
50417;SDS011;36346;48.280;14.292;2023-02-01T11:00:56;3.67;;;3.64;;
50417;SDS011;36346;48.280;14.292;2023-02-01T11:09:19;3.01;;;3.00;;
50417;SDS011;36346;48.280;14.292;2023-02-01T11:16:56;2.63;;;2.63;;
50417;SDS011;36346;48.280;14.292;2023-02-01T11:19:27;2.68;;;2.66;;
50417;SDS011;36346;48.280;14.292;2023-02-01T11:22:00;2.63;;;2.63;;
50417;SDS011;36346;48.280;14.292;2023-02-01T11:24:35;2.28;;;2.27;;
50417;SDS011;36346;48.280;14.292;2023-02-01T11:27:12;2.29;;;2.28;;
50417;SDS011;36346;48.280;14.292;2023-02-01T11:29:56;2.69;;;2.67;;
50417;SDS011;36346;48.280;14.292;2023-02-01T11:32:28;2.67;;;2.67;;
50417;SDS011;36346;48.280;14.292;2023-02-01T11:34:59;3.25;;;3.25;;
50417;SDS011;36346;48.280;14.292;2023-02-01T11:37:33;3.35;;;3.35;;
50417;SDS011;36346;48.280;14.292;2023-02-01T11:40:22;3.13;;;3.13;;
50417;SDS011;36346;48.280;14.292;2023-02-01T11:42:58;3.84;;;3.83;;
50417;SDS011;36346;48.280;14.292;2023-02-01T11:45:58;4.05;;;4.05;;
50417;SDS011;36346;48.280;14.292;2023-02-01T11:48:30;4.31;;;4.31;;
50417;SDS011;36346;48.280;14.292;2023-02-01T11:51:07;4.41;;;4.41;;
50417;SDS011;36346;48.280;14.292;2023-02-01T11:56:41;4.75;;;4.75;;
50417;SDS011;36346;48.280;14.292;2023-02-01T12:02:33;4.43;;;4.43;;
50417;SDS011;36346;48.280;14.292;2023-02-01T12:14:03;5.42;;;5.42;;
50417;SDS011;36346;48.280;14.292;2023-02-01T12:22:03;5.30;;;5.30;;
50417;SDS011;36346;48.280;14.292;2023-02-01T12:33:40;5.72;;;5.72;;
50417;SDS011;36346;48.280;14.292;2023-02-01T12:39:21;7.62;;;7.62;;
50417;SDS011;36346;48.280;14.292;2023-02-01T12:44:32;5.49;;;5.49;;
50417;SDS011;36346;48.280;14.292;2023-02-01T12:52:48;4.42;;;4.40;;
50417;SDS011;36346;48.280;14.292;2023-02-01T12:58:14;3.87;;;3.86;;
50417;SDS011;36346;48.280;14.292;2023-02-01T13:00:55;3.44;;;3.44;;
50417;SDS011;36346;48.280;14.292;2023-02-01T13:03:38;3.96;;;3.96;;
50417;SDS011;36346;48.280;14.292;2023-02-01T13:06:19;3.75;;;3.75;;
50417;SDS011;36346;48.280;14.292;2023-02-01T13:09:17;3.72;;;3.72;;
50417;SDS011;36346;48.280;14.292;2023-02-01T13:11:43;3.57;;;3.57;;
50417;SDS011;36346;48.280;14.292;2023-02-01T13:17:30;3.40;;;3.40;;
50417;SDS011;36346;48.280;14.292;2023-02-01T13:22:54;2.24;;;2.24;;
50417;SDS011;36346;48.280;14.292;2023-02-01T13:25:37;2.39;;;2.39;;
50417;SDS011;36346;48.280;14.292;2023-02-01T13:34:24;2.03;;;2.01;;
50417;SDS011;36346;48.280;14.292;2023-02-01T13:37:09;2.09;;;2.07;;
50417;SDS011;36346;48.280;14.292;2023-02-01T13:43:32;2.02;;;2.01;;
50417;SDS011;36346;48.280;14.292;2023-02-01T13:45:56;1.83;;;1.81;;
50417;SDS011;36346;48.280;14.292;2023-02-01T13:48:39;1.84;;;1.81;;
50417;SDS011;36346;48.280;14.292;2023-02-01T13:51:15;2.15;;;2.12;;
50417;SDS011;36346;48.280;14.292;2023-02-01T13:54:01;2.17;;;2.17;;
50417;SDS011;36346;48.280;14.292;2023-02-01T13:56:42;2.31;;;2.31;;
50417;SDS011;36346;48.280;14.292;2023-02-01T14:07:52;3.37;;;3.35;;
50417;SDS011;36346;48.280;14.292;2023-02-01T14:18:56;3.97;;;3.97;;
50417;SDS011;36346;48.280;14.292;2023-02-01T14:21:49;4.08;;;4.08;;
50417;SDS011;36346;48.280;14.292;2023-02-01T14:24:31;4.47;;;4.47;;
50417;SDS011;36346;48.280;14.292;2023-02-01T14:27:02;4.56;;;4.56;;
50417;SDS011;36346;48.280;14.292;2023-02-01T14:29:51;4.62;;;4.62;;
50417;SDS011;36346;48.280;14.292;2023-02-01T14:32:26;4.77;;;4.77;;
50417;SDS011;36346;48.280;14.292;2023-02-01T14:35:04;4.91;;;4.91;;
50417;SDS011;36346;48.280;14.292;2023-02-01T14:37:35;4.96;;;4.93;;
50417;SDS011;36346;48.280;14.292;2023-02-01T14:40:15;5.67;;;5.66;;
50417;SDS011;36346;48.280;14.292;2023-02-01T14:42:48;5.24;;;5.24;;
50417;SDS011;36346;48.280;14.292;2023-02-01T14:50:39;5.45;;;5.45;;
50417;SDS011;36346;48.280;14.292;2023-02-01T14:55:42;5.18;;;5.18;;
50417;SDS011;36346;48.280;14.292;2023-02-01T14:58:29;4.79;;;4.78;;
50417;SDS011;36346;48.280;14.292;2023-02-01T15:01:30;4.90;;;4.89;;
50417;SDS011;36346;48.280;14.292;2023-02-01T15:06:43;5.52;;;5.52;;
50417;SDS011;36346;48.280;14.292;2023-02-01T15:14:24;5.58;;;5.58;;
50417;SDS011;36346;48.280;14.292;2023-02-01T15:16:53;5.31;;;5.31;;
50417;SDS011;36346;48.280;14.292;2023-02-01T15:19:23;5.62;;;5.60;;
50417;SDS011;36346;48.280;14.292;2023-02-01T15:21:55;5.62;;;5.62;;
50417;SDS011;36346;48.280;14.292;2023-02-01T15:24:32;5.45;;;5.45;;
50417;SDS011;36346;48.280;14.292;2023-02-01T15:27:03;5.73;;;5.73;;
50417;SDS011;36346;48.280;14.292;2023-02-01T15:29:37;5.41;;;5.41;;
50417;SDS011;36346;48.280;14.292;2023-02-01T15:32:05;4.89;;;4.89;;
50417;SDS011;36346;48.280;14.292;2023-02-01T15:34:44;4.88;;;4.88;;
50417;SDS011;36346;48.280;14.292;2023-02-01T15:37:16;4.38;;;4.36;;
50417;SDS011;36346;48.280;14.292;2023-02-01T15:42:47;4.23;;;4.22;;
50417;SDS011;36346;48.280;14.292;2023-02-01T15:45:19;4.24;;;4.24;;
50417;SDS011;36346;48.280;14.292;2023-02-01T15:47:49;4.23;;;4.22;;
50417;SDS011;36346;48.280;14.292;2023-02-01T15:50:21;4.44;;;4.41;;
50417;SDS011;36346;48.280;14.292;2023-02-01T15:53:18;4.52;;;4.51;;
50417;SDS011;36346;48.280;14.292;2023-02-01T15:55:52;3.90;;;3.87;;
50417;SDS011;36346;48.280;14.292;2023-02-01T15:58:23;3.98;;;3.94;;
50417;SDS011;36346;48.280;14.292;2023-02-01T16:01:42;4.24;;;4.19;;
50417;SDS011;36346;48.280;14.292;2023-02-01T16:04:19;4.33;;;4.26;;
50417;SDS011;36346;48.280;14.292;2023-02-01T16:06:54;4.68;;;4.59;;
50417;SDS011;36346;48.280;14.292;2023-02-01T16:09:35;4.43;;;4.35;;
50417;SDS011;36346;48.280;14.292;2023-02-01T16:12:24;4.60;;;4.44;;
50417;SDS011;36346;48.280;14.292;2023-02-01T16:15:04;10.91;;;10.73;;
50417;SDS011;36346;48.280;14.292;2023-02-01T16:17:32;7.01;;;6.95;;
50417;SDS011;36346;48.280;14.292;2023-02-01T16:20:00;4.97;;;4.93;;
50417;SDS011;36346;48.280;14.292;2023-02-01T16:22:30;5.58;;;5.51;;
50417;SDS011;36346;48.280;14.292;2023-02-01T16:24:58;5.08;;;5.04;;
50417;SDS011;36346;48.280;14.292;2023-02-01T16:27:26;4.72;;;4.69;;
50417;SDS011;36346;48.280;14.292;2023-02-01T16:30:18;5.32;;;5.28;;
50417;SDS011;36346;48.280;14.292;2023-02-01T16:35:30;5.07;;;5.00;;
50417;SDS011;36346;48.280;14.292;2023-02-01T16:38:30;4.98;;;4.92;;
50417;SDS011;36346;48.280;14.292;2023-02-01T16:40:58;5.00;;;4.93;;
50417;SDS011;36346;48.280;14.292;2023-02-01T16:43:27;4.89;;;4.82;;
50417;SDS011;36346;48.280;14.292;2023-02-01T16:45:55;5.23;;;5.18;;
50417;SDS011;36346;48.280;14.292;2023-02-01T16:48:34;5.23;;;5.19;;
50417;SDS011;36346;48.280;14.292;2023-02-01T16:51:09;5.35;;;5.27;;
50417;SDS011;36346;48.280;14.292;2023-02-01T16:53:40;5.20;;;5.08;;
50417;SDS011;36346;48.280;14.292;2023-02-01T16:56:22;5.44;;;5.39;;
50417;SDS011;36346;48.280;14.292;2023-02-01T16:58:51;6.52;;;6.42;;
50417;SDS011;36346;48.280;14.292;2023-02-01T17:01:22;5.22;;;5.19;;
50417;SDS011;36346;48.280;14.292;2023-02-01T17:04:16;5.20;;;5.19;;
50417;SDS011;36346;48.280;14.292;2023-02-01T17:06:48;4.43;;;4.42;;
50417;SDS011;36346;48.280;14.292;2023-02-01T17:09:18;4.52;;;4.49;;
50417;SDS011;36346;48.280;14.292;2023-02-01T17:11:48;4.55;;;4.49;;
50417;SDS011;36346;48.280;14.292;2023-02-01T17:14:17;4.24;;;4.18;;
50417;SDS011;36346;48.280;14.292;2023-02-01T17:16:47;4.38;;;4.32;;
50417;SDS011;36346;48.280;14.292;2023-02-01T17:19:20;4.53;;;4.48;;
50417;SDS011;36346;48.280;14.292;2023-02-01T17:21:52;4.40;;;4.39;;
50417;SDS011;36346;48.280;14.292;2023-02-01T17:24:29;5.10;;;5.07;;
50417;SDS011;36346;48.280;14.292;2023-02-01T17:27:14;10.27;;;10.21;;
50417;SDS011;36346;48.280;14.292;2023-02-01T17:29:44;14.31;;;14.09;;
50417;SDS011;36346;48.280;14.292;2023-02-01T17:32:15;8.71;;;8.54;;
50417;SDS011;36346;48.280;14.292;2023-02-01T17:35:20;7.53;;;7.45;;
50417;SDS011;36346;48.280;14.292;2023-02-01T17:37:52;7.27;;;7.24;;
50417;SDS011;36346;48.280;14.292;2023-02-01T17:40:21;4.35;;;4.34;;
50417;SDS011;36346;48.280;14.292;2023-02-01T17:42:50;4.48;;;4.46;;
50417;SDS011;36346;48.280;14.292;2023-02-01T17:45:26;4.32;;;4.30;;
50417;SDS011;36346;48.280;14.292;2023-02-01T17:48:03;4.32;;;4.29;;
50417;SDS011;36346;48.280;14.292;2023-02-01T17:50:33;4.16;;;4.13;;
50417;SDS011;36346;48.280;14.292;2023-02-01T17:53:05;4.03;;;4.02;;
50417;SDS011;36346;48.280;14.292;2023-02-01T17:55:40;3.77;;;3.75;;
50417;SDS011;36346;48.280;14.292;2023-02-01T17:58:12;3.85;;;3.81;;
50417;SDS011;36346;48.280;14.292;2023-02-01T18:00:41;3.88;;;3.80;;
50417;SDS011;36346;48.280;14.292;2023-02-01T18:06:12;4.07;;;3.99;;
50417;SDS011;36346;48.280;14.292;2023-02-01T18:08:44;8.66;;;8.52;;
50417;SDS011;36346;48.280;14.292;2023-02-01T18:11:16;3.96;;;3.90;;
50417;SDS011;36346;48.280;14.292;2023-02-01T18:13:49;4.12;;;4.08;;
50417;SDS011;36346;48.280;14.292;2023-02-01T18:16:22;4.79;;;4.76;;
50417;SDS011;36346;48.280;14.292;2023-02-01T18:18:50;4.57;;;4.48;;
50417;SDS011;36346;48.280;14.292;2023-02-01T18:21:21;3.88;;;3.76;;